Blue Oak Ranch Reserve, California Weather observations

Data are for 10 minute period ending at time listed.
 Day   Time   Solar   Ave.   Ave.  Ave.  Vector  Max.   Baro.   Total    
  of    of     Rad.   Air    Rel.  Wind   Wind   Wind  Press.  Precip.   
Year   Day            Temp.  Hum.  Speed  Dir.   Gust                    
2015   (PST)  Kw/m2    F      %     mph   deg.    mph    mb.     in.     
-------------------------------------------------------------------------
 242    7:10   0.23   61.4    71    3.7   298     8.1   950.0    0.00 
 242    7:20   0.27   61.5    71    2.4   310     5.2   950.0    0.00 
 242    7:30   0.31   62.1    70    4.9   279     7.3   950.1    0.00 
 242    7:40   0.33   62.3    69    5.4   282     9.3   950.3    0.00 
 242    7:50   0.34   62.7    68    6.4   287     9.8   950.3    0.00 
 242    8:00   0.40   63.4    67    6.0   282     8.6   950.3    0.00 
 242    8:10   0.42   64.4    65    6.5   282     9.2   950.2    0.00 
 242    8:20   0.45   64.8    63    6.2   286     8.7   950.3    0.00 
 242    8:30   0.48   65.8    60    5.9   283     9.1   950.4    0.00 
 242    8:40   0.52   66.4    59    6.3   278     9.9   950.4    0.00 
 242    8:50   0.55   67.3    58    5.8   278    10.4   950.5    0.00 
 242    9:00   0.58   67.4    57    6.2   284    12.2   950.6    0.00 
 242    9:10   0.61   68.4    55    7.3   283    11.1   950.7    0.00 
 242    9:20   0.64   68.9    52    6.6   279    10.6   950.8    0.00 
 242    9:30   0.66   69.1    58    6.6   254    11.2   950.9    0.00 
 242    9:40   0.68   68.7    62    7.4   248    13.8   950.9    0.00 
 242    9:50   0.70   68.3    62    6.2   242    11.9   950.9    0.00 
 242   10:00   0.71   70.5    53    7.0   265    12.0   951.0    0.00 
 242   10:10   0.72   70.9    50    8.1   282    13.7   951.0    0.00 
 242   10:20   0.75   70.1    58    8.9   260    14.5   951.1    0.00 
 242   10:30   0.76   69.7    58    7.9   248    14.1   951.0    0.00 
 242   10:40   0.78   70.6    56    8.5   251    14.9   950.9    0.00 
 242   10:50   0.80   70.9    55    7.7   259    13.3   950.9    0.00 
 242   11:00   0.81   72.4    52    6.2   268    14.9   950.8    0.00 
 242   11:10   0.82   72.4    51    7.8   276    14.6   950.8    0.00 
 242   11:20   0.83   72.1    50    8.2   286    13.1   950.8    0.00 
 242   11:30   0.84   71.8    51    8.1   289    14.0   950.7    0.00 
 242   11:40   0.85   72.2    50    7.8   288    14.3   950.6    0.00 
 242   11:50   0.85   72.4    48    7.4   292    13.6   950.5    0.00 
 242   12:00   0.86   73.1    46    7.8   278    12.5   950.4    0.00 
 242   12:10   0.86   72.9    47    9.6   284    15.5   950.4    0.00 
 242   12:20   0.86   73.3    46    9.3   280    16.3   950.3    0.00 
 242   12:30   0.86   73.3    45    9.4   283    14.5   950.3    0.00 
 242   12:40   0.86   73.4    44    8.2   280    15.8   950.3    0.00 
 242   12:50   0.84   73.2    44    8.5   287    15.5   950.3    0.00 
 242   13:00   0.83   73.5    43    8.7   284    13.8   950.2    0.00 
 242   13:10   0.84   74.3    41    6.9   283    13.5   950.1    0.00 
 242   13:20   0.82   74.6    40    8.4   290    15.1   950.1    0.00 
 242   13:30   0.81   74.8    42    8.5   288    14.4   950.0    0.00 
 242   13:40   0.80   74.1    44    8.5   281    13.2   949.9    0.00 
 242   13:50   0.79   74.8    42    8.8   270    15.9   949.9    0.00 
 242   14:00   0.77   75.0    40    7.5   284    14.5   949.8    0.00 
 242   14:10   0.75   75.5    40    9.0   278    14.0   949.6    0.00 
 242   14:20   0.73   74.7    40    8.8   296    14.6   949.5    0.00 
 242   14:30   0.72   75.0    40    9.4   280    14.9   949.5    0.00 
 242   14:40   0.69   74.8    40    8.8   289    13.8   949.4    0.00 
 242   14:50   0.67   75.4    40    8.9   281    16.0   949.3    0.00 
 242   15:00   0.64   75.4    38    8.9   269    17.5   949.2    0.00 
 242   15:10   0.61   75.7    38    8.3   282    15.2   949.1    0.00 
 242   15:20   0.59   75.7    40    9.9   285    15.3   948.9    0.00 
 242   15:30   0.56   75.6    41    9.5   284    15.2   948.9    0.00 
 242   15:40   0.53   74.7    43    9.1   285    13.5   948.9    0.00 
 242   15:50   0.50   74.5    44    9.5   289    13.7   948.9    0.00 
 242   16:00   0.47   73.6    46    9.6   290    14.3   948.8    0.00 
 242   16:10   0.43   73.8    47    8.4   289    12.1   948.7    0.00 
 242   16:20   0.39   73.8    48    7.7   284    12.4   948.7    0.00 
 242   16:30   0.35   72.8    49    8.5   281    11.7   948.7    0.00 
 242   16:40   0.32   72.1    51    9.4   288    12.7   948.7    0.00 
 242   16:50   0.29   71.0    53    9.3   281    13.2   948.8    0.00 
 242   17:00   0.27   70.5    53    8.6   279    12.6   948.8    0.00 
 242   17:10   0.23   70.2    53    8.0   290    12.6   948.8    0.00 
 242   17:20   0.20   69.7    57    8.8   281    14.0   948.7    0.00 
 242   17:30   0.17   68.9    57    8.5   289    13.4   948.6    0.00 
 242   17:40   0.14   68.6    57    5.3   288     9.4   948.5    0.00 
 242   17:50   0.11   68.4    56    5.8   295     9.3   948.3    0.00 
 242   18:00   0.08   67.8    54    5.7   288     8.8   948.3    0.00 
 242   18:10   0.07   67.5    55    4.4   296     8.4   948.2    0.00 
 242   18:20   0.04   66.3    58    5.9   297     8.0   948.2    0.00 
 242   18:30   0.02   64.7    65    5.0   312     7.8   948.0    0.00 
 242   18:40   0.01   63.6    71    4.2   321     6.6   947.8    0.00 
 242   18:50   0.01   62.7    72    3.1   346     4.7   947.7    0.00 
 242   19:00   0.00   62.1    76    3.7   332     5.9   947.7    0.00 
 242   19:10   0.00   61.0    76    2.7     9     3.7   947.7    0.00 
 242   19:20   0.00   60.2    77    2.0   303     2.9   947.7    0.00 
 242   19:30   0.00   59.1    78    0.7   356     2.3   947.7    0.00 
 242   19:40   0.00   58.1    80    0.6    72     1.5   947.8    0.00 
 242   19:50   0.00   57.7    80    1.6   295     3.7   947.9    0.00 
 242   20:00   0.00   56.9    81    1.0    52     2.4   947.9    0.00 
 242   20:10   0.00   56.1    82    0.1    39     0.8   948.0    0.00 
 242   20:20   0.00   55.6    81    0.0   251     0.6   948.1    0.00 
 242   20:30   0.00   55.2    82    0.1    40     1.1   948.1    0.00 
 242   20:40   0.00   54.9    82    0.9   297     1.8   948.2    0.00 
 242   20:50   0.00   54.4    84    1.8   293     3.1   948.2    0.00 
 242   21:00   0.00   53.7    85    1.2    67     2.2   948.2    0.00 
 242   21:10   0.00   53.5    84    0.5   320     1.7   948.2    0.00 
 242   21:20   0.00   53.1    85    0.0     0     0.0   948.1    0.00 
 242   21:30   0.00   52.9    85    0.3   298     1.2   947.9    0.00 
 242   21:40   0.00   52.8    86    1.8   294     3.2   947.9    0.00 
 242   21:50   0.00   52.6    87    0.4    32     1.8   947.8    0.00 
 242   22:00   0.00   52.7    88    0.0     0     0.0   947.8    0.00 
 242   22:10   0.00   52.3    86    0.0     0     0.0   947.7    0.00 
 242   22:20   0.00   52.2    85    0.1   250     1.2   947.7    0.00 
 242   22:30   0.00   52.2    84    2.2   312     3.1   947.7    0.00 
 242   22:40   0.00   51.9    82    1.2    62     2.3   947.6    0.00 
 242   22:50   0.00   51.5    81    1.2    39     2.3   947.6    0.00 
 242   23:00   0.00   51.2    83    0.3   332     1.1   947.6    0.00 
 242   23:10   0.00   50.8    84    0.1    31     1.1   947.6    0.00 
 242   23:20   0.00   50.6    84    0.4   283     1.2   947.6    0.00 
 242   23:30   0.00   51.0    83    0.9   334     2.3   947.6    0.00 
 242   23:40   0.00   50.6    83    0.2   289     1.2   947.6    0.00 
 242   23:50   0.00   50.6    84    0.7   305     1.5   947.6    0.00 
 243    0:00   0.00   50.5    85    0.0   304     0.7   947.4    0.00 
 243    0:10   0.00   50.4    85    0.0   270     0.7   947.4    0.00 
 243    0:20   0.00   50.2    86    0.0     0     0.0   947.4    0.00 
 243    0:30   0.00   50.2    85    0.0    84     0.6   947.4    0.00 
 243    0:40   0.00   50.1    83    0.1    68     1.1   947.2    0.00 
 243    0:50   0.00   50.4    81    0.0     0     0.0   947.1    0.00 
 243    1:00   0.00   50.1    83    0.1   306     0.9   947.1    0.00 
 243    1:10   0.00   49.9    83    0.0    47     0.7   947.0    0.00 
 243    1:20   0.00   50.0    80    2.4    62     3.5   947.1    0.00 
 243    1:30   0.00   50.0    78    0.9    28     3.0   947.1    0.00 
 243    1:40   0.00   49.8    81    0.6   297     2.0   947.1    0.00 
 243    1:50   0.00   49.7    83    0.3   304     1.2   947.0    0.00 
 243    2:00   0.00   49.7    84    0.1    87     0.9   946.9    0.00 
 243    2:10   0.00   49.7    84    0.5   291     2.2   946.8    0.00 
 243    2:20   0.00   49.6    84    0.2   303     1.3   946.8    0.00 
 243    2:30   0.00   49.8    86    0.0     0     0.0   946.8    0.00 
 243    2:40   0.00   49.7    86    0.3   109     1.2   946.7    0.00 
 243    2:50   0.00   49.7    85    0.3    68     1.2   946.7    0.00 
 243    3:00   0.00   49.4    84    0.2    34     0.9   946.6    0.00 
 243    3:10   0.00   49.6    84    0.1   329     0.9   946.6    0.00 
 243    3:20   0.00   49.8    83    0.0     0     0.0   946.6    0.00 
 243    3:30   0.00   49.6    83    0.0     0     0.0   946.6    0.00 
 243    3:40   0.00   49.4    82    0.1   322     0.7   946.7    0.00 
 243    3:50   0.00   49.2    82    0.6   296     1.2   946.6    0.00 
 243    4:00   0.00   49.2    84    0.5   279     1.2   946.5    0.00 
 243    4:10   0.00   49.6    82    0.2   337     1.0   946.4    0.00 
 243    4:20   0.00   50.0    80    0.6    80     2.4   946.5    0.00 
 243    4:30   0.00   50.3    78    0.9    66     2.7   946.6    0.00 
 243    4:40   0.00   49.9    79    0.4    40     1.3   946.6    0.00 
 243    4:50   0.00   49.7    80    0.0     0     0.0   946.6    0.00 
 243    5:00   0.00   49.7    81    0.2   306     1.0   946.6    0.00 
 243    5:10   0.00   50.1    79    0.3   292     1.3   946.6    0.00 
 243    5:20   0.00   50.3    78    0.4    55     1.3   946.6    0.00 
 243    5:30   0.00   50.3    78    0.0     0     0.0   946.7    0.00 
 243    5:40   0.01   50.2    78    0.0     0     0.0   946.7    0.00 
 243    5:50   0.01   49.9    79    0.7   292     2.2   946.8    0.00 
 243    6:00   0.01   50.1    80    0.1    20     0.9   946.8    0.00 
 243    6:10   0.03   50.8    78    0.0    40     0.4   946.9    0.00 
 243    6:20   0.03   51.4    78    0.0   141     0.5   946.9    0.00 
 243    6:30   0.03   51.9    77    0.4    78     1.5   947.0    0.00 
 243    6:40   0.07   52.6    75    0.6    56     1.7   947.1    0.00 
 243    6:50   0.15   54.2    74    0.3    71     2.0   947.2    0.00 
 243    7:00   0.19   58.4    66    0.4    69     1.9   947.2    0.00 

Return to Blue Oak Ranch Reserve graphs page.


Western Regional Climate Center,wrcc@dri.edu